Time;durP1;ratioP1;P1;durP2;ratioP2;P2;SDS_P1;SDS_P2;PMS_P1;PMS_P2;Temp;Humidity;BMP_temperature;BMP_pressure;BME280_temperature;BME280_humidity;BME280_pressure;Samples;Min_cycle;Max_cycle;Signal;HPM_P1;HPM_P2
2023/06/12 03:16:04;;;;;;;6.38;3.55;;;16.60;90.00;;;;;;6170929;22;90336;31
2023/06/12 03:18:30;;;;;;;6.03;2.88;;;16.60;90.50;;;;;;6157863;22;87472;-70
2023/06/12 03:20:55;;;;;;;6.43;2.47;;;16.60;90.00;;;;;;6159533;22;87492;-68
2023/06/12 03:23:21;;;;;;;5.90;2.70;;;16.60;89.90;;;;;;6157354;22;87719;-69
2023/06/12 03:25:47;;;;;;;5.60;2.45;;;16.60;90.10;;;;;;6157543;22;87845;-71
2023/06/12 03:28:13;;;;;;;5.72;2.25;;;16.60;87.60;;;;;;6159112;22;87072;-71
2023/06/12 03:30:40;;;;;;;4.55;1.80;;;16.60;83.80;;;;;;6160136;22;86385;-73
2023/06/12 03:33:05;;;;;;;3.38;1.77;;;16.60;79.50;;;;;;6158141;22;88478;-70
2023/06/12 03:35:31;;;;;;;4.05;1.98;;;16.60;78.70;;;;;;6158236;22;87564;-72
2023/06/12 03:37:57;;;;;;;5.38;1.85;;;16.70;78.50;;;;;;6158318;22;88260;-71
2023/06/12 03:40:22;;;;;;;4.15;1.58;;;16.70;80.40;;;;;;6159300;22;87246;-70
2023/06/12 03:42:48;;;;;;;3.15;2.10;;;16.70;81.50;;;;;;6158257;22;87709;-71
2023/06/12 03:45:14;;;;;;;4.97;2.45;;;16.80;80.40;;;;;;6158794;22;87754;-71
2023/06/12 03:47:40;;;;;;;5.00;1.98;;;16.70;80.80;;;;;;6158762;22;87348;-72
2023/06/12 03:50:07;;;;;;;5.05;2.38;;;16.70;82.00;;;;;;6157100;22;87366;-70
2023/06/12 03:52:32;;;;;;;6.50;2.28;;;16.90;82.60;;;;;;6157065;22;87536;-71
2023/06/12 03:54:58;;;;;;;3.70;2.22;;;17.20;79.00;;;;;;6156598;22;88666;-68
2023/06/12 03:57:24;;;;;;;6.25;1.90;;;17.60;76.70;;;;;;6157401;22;87867;-70
2023/06/12 03:59:49;;;;;;;3.63;1.75;;;18.00;75.30;;;;;;6159036;22;87259;-69
2023/06/12 04:02:15;;;;;;;4.88;1.63;;;18.40;73.20;;;;;;6155792;22;89052;-70
2023/06/12 04:04:40;;;;;;;5.20;2.30;;;18.80;71.90;;;;;;6157325;22;87428;-70
2023/06/12 04:07:06;;;;;;;4.78;2.08;;;19.20;70.10;;;;;;6157091;22;87283;-71
2023/06/12 04:09:32;;;;;;;3.67;2.20;;;19.50;69.00;;;;;;6157875;22;87822;-68
2023/06/12 04:11:57;;;;;;;6.15;2.53;;;20.00;69.00;;;;;;6156265;22;87462;-71
2023/06/12 04:14:23;;;;;;;4.13;2.38;;;20.40;66.80;;;;;;6157477;22;87501;-70
2023/06/12 04:16:49;;;;;;;6.55;2.67;;;20.90;65.40;;;;;;6167511;22;87256;-69
2023/06/12 04:19:15;;;;;;;3.55;2.22;;;21.20;64.30;;;;;;6189506;22;86867;-70
2023/06/12 04:21:41;;;;;;;3.95;2.72;;;21.40;64.30;;;;;;6187774;22;88492;-72
2023/06/12 04:24:15;;;;;;;5.60;2.40;;;21.90;62.50;;;;;;6188833;22;87788;-70
2023/06/12 04:26:44;;;;;;;4.30;2.67;;;22.30;60.50;;;;;;6188345;22;88456;-70
2023/06/12 04:29:12;;;;;;;6.93;2.80;;;22.50;60.50;;;;;;6189187;22;87738;-70
2023/06/12 04:31:38;;;;;;;3.83;2.22;;;22.70;59.20;;;;;;6187563;22;88434;-69
2023/06/12 04:34:06;;;;;;;3.67;1.80;;;23.10;58.00;;;;;;6187591;22;87749;-71
2023/06/12 04:36:37;;;;;;;5.63;2.42;;;23.30;56.40;;;;;;6188776;22;87391;-72
2023/06/12 04:39:04;;;;;;;3.65;2.75;;;23.50;57.40;;;;;;6189149;22;87420;-70
2023/06/12 04:41:32;;;;;;;3.22;2.72;;;24.10;56.20;;;;;;6188117;22;87590;-69
2023/06/12 04:44:03;;;;;;;4.60;3.08;;;24.60;54.80;;;;;;6188041;22;87897;-70
2023/06/12 04:46:29;;;;;;;6.38;2.70;;;24.80;52.90;;;;;;6188239;22;87320;-70
2023/06/12 04:48:55;;;;;;;4.03;2.25;;;25.40;53.00;;;;;;6187933;22;87497;-70
2023/06/12 04:51:23;;;;;;;5.22;2.38;;;26.10;51.70;;;;;;6186411;22;89770;-70
2023/06/12 04:53:49;;;;;;;11.20;3.03;;;26.20;51.00;;;;;;6187494;22;88712;-72
2023/06/12 04:56:20;;;;;;;4.85;2.67;;;26.80;50.70;;;;;;6187236;22;87481;-73
2023/06/12 04:58:46;;;;;;;4.25;2.15;;;27.70;49.30;;;;;;6187996;22;87303;-72
2023/06/12 05:01:14;;;;;;;3.97;3.28;;;27.40;47.70;;;;;;6187250;22;88701;-73
2023/06/12 05:03:41;;;;;;;7.50;3.65;;;27.50;47.50;;;;;;6187226;22;87881;-68
2023/06/12 05:06:09;;;;;;;7.22;3.70;;;27.70;48.00;;;;;;6187254;22;87157;-71
2023/06/12 05:08:36;;;;;;;4.25;3.38;;;28.40;47.00;;;;;;6187553;22;86439;-73
2023/06/12 05:11:03;;;;;;;5.55;3.67;;;28.70;47.00;;;;;;6186747;22;88026;-70
2023/06/12 05:13:29;;;;;;;4.28;3.13;;;28.80;45.90;;;;;;6186597;22;87886;-71
2023/06/12 05:15:55;;;;;;;5.63;3.75;;;29.30;45.80;;;;;;6186622;22;88216;-72
2023/06/12 05:18:20;;;;;;;5.00;3.13;;;29.60;45.20;;;;;;6186540;22;87164;-73
2023/06/12 05:20:46;;;;;;;4.40;3.90;;;29.80;44.70;;;;;;6186715;22;87324;-74
2023/06/12 05:23:11;;;;;;;7.20;3.72;;;29.70;43.90;;;;;;6185352;22;88239;-71
2023/06/12 05:25:37;;;;;;;4.13;2.95;;;30.00;43.70;;;;;;6187627;22;87249;-70
2023/06/12 05:28:03;;;;;;;4.57;3.75;;;30.50;43.80;;;;;;6186336;22;87175;-71
2023/06/12 05:30:29;;;;;;;5.40;3.47;;;30.50;42.60;;;;;;6186390;22;88068;-72
2023/06/12 05:32:55;;;;;;;4.55;3.42;;;30.90;42.80;;;;;;6186680;22;87923;-73
2023/06/12 05:35:21;;;;;;;8.45;3.88;;;31.00;41.80;;;;;;6187372;22;87330;-73
2023/06/12 05:37:47;;;;;;;4.32;3.20;;;31.30;42.70;;;;;;6187433;22;87418;-71
2023/06/12 05:40:13;;;;;;;6.18;3.92;;;31.50;41.50;;;;;;6187732;22;89786;-70
2023/06/12 05:42:39;;;;;;;9.85;3.85;;;32.30;41.10;;;;;;6187870;22;88521;-71
2023/06/12 05:45:05;;;;;;;5.95;3.63;;;32.30;41.10;;;;;;6188399;22;87178;-72
2023/06/12 05:47:33;;;;;;;4.53;3.80;;;32.90;40.10;;;;;;6161096;22;87577;-70
2023/06/12 05:49:59;;;;;;;2.53;2.20;;;33.50;40.40;;;;;;6188425;22;88505;-71
2023/06/12 05:52:25;;;;;;;4.78;4.18;;;33.90;39.80;;;;;;6187297;22;88822;-70
2023/06/12 05:54:51;;;;;;;5.85;4.15;;;33.80;40.40;;;;;;6187570;22;87350;-70
2023/06/12 05:57:17;;;;;;;8.20;4.60;;;33.70;39.60;;;;;;6188401;22;86587;-71
2023/06/12 05:59:44;;;;;;;7.18;4.35;;;33.90;39.70;;;;;;6186511;22;87981;-70
2023/06/12 06:02:10;;;;;;;7.07;4.43;;;33.70;40.00;;;;;;6187531;22;87265;-72
2023/06/12 06:04:36;;;;;;;5.40;4.43;;;34.10;40.30;;;;;;6186714;22;88265;-72
2023/06/12 06:07:02;;;;;;;12.23;4.80;;;34.60;39.20;;;;;;6188950;22;87294;-72
2023/06/12 06:09:27;;;;;;;6.32;5.07;;;34.70;39.20;;;;;;6187660;22;87991;-71
2023/06/12 06:11:53;;;;;;;5.13;4.50;;;34.80;39.30;;;;;;6186236;22;87416;-74
2023/06/12 06:14:19;;;;;;;6.20;4.82;;;34.90;38.90;;;;;;6181042;22;87615;-71
2023/06/12 06:16:45;;;;;;;5.72;5.22;;;35.00;39.10;;;;;;6161028;22;87347;-72
2023/06/12 06:19:11;;;;;;;5.38;4.85;;;35.00;38.40;;;;;;6188227;22;87505;-72
2023/06/12 06:21:36;;;;;;;5.65;4.72;;;34.90;39.00;;;;;;6188783;22;87071;-71
2023/06/12 06:24:02;;;;;;;5.22;4.72;;;35.30;37.50;;;;;;6161477;22;87098;-71
2023/06/12 06:26:28;;;;;;;5.93;5.32;;;35.10;37.50;;;;;;6184807;22;87608;-70
2023/06/12 06:28:55;;;;;;;5.60;5.10;;;36.40;38.00;;;;;;6159727;22;90391;-71
2023/06/12 06:31:25;;;;;;;7.13;5.18;;;37.60;36.90;;;;;;6186405;22;88566;-72
2023/06/12 06:33:50;;;;;;;8.80;5.43;;;38.20;36.30;;;;;;6183092;22;87390;-71
2023/06/12 06:36:16;;;;;;;6.20;5.45;;;38.90;36.40;;;;;;6181435;22;87397;-71
2023/06/12 06:38:42;;;;;;;5.82;5.22;;;39.00;34.70;;;;;;6184402;22;88155;-72
2023/06/12 06:41:07;;;;;;;5.15;3.85;;;38.90;34.90;;;;;;6186662;22;87954;-70
2023/06/12 06:43:33;;;;;;;5.82;5.22;;;39.20;35.10;;;;;;6187780;22;87415;-71
2023/06/12 06:45:58;;;;;;;6.57;5.80;;;39.10;34.10;;;;;;6188024;22;86189;-71
2023/06/12 06:48:24;;;;;;;6.18;5.68;;;39.10;35.20;;;;;;6187278;22;88090;-70
2023/06/12 06:50:50;;;;;;;6.07;5.53;;;39.50;35.00;;;;;;6187125;22;88401;-71
2023/06/12 06:53:16;;;;;;;7.80;5.70;;;40.00;33.90;;;;;;6186719;22;87867;-72
2023/06/12 06:55:44;;;;;;;7.03;6.32;;;40.60;34.20;;;;;;6186672;22;87468;-70
2023/06/12 06:58:10;;;;;;;8.60;3.97;;;40.90;33.90;;;;;;6187657;22;88624;-71
2023/06/12 07:00:36;;;;;;;7.18;4.25;;;41.30;33.50;;;;;;6186190;22;87808;-70
2023/06/12 07:03:02;;;;;;;9.77;6.32;;;41.20;33.30;;;;;;6187720;22;86983;-71
2023/06/12 07:05:28;;;;;;;7.68;5.65;;;41.80;32.70;;;;;;6187502;22;87436;-72
2023/06/12 07:07:54;;;;;;;9.85;6.20;;;42.20;32.50;;;;;;6183499;22;87363;-71
2023/06/12 07:10:20;;;;;;;9.48;8.57;;;42.40;32.30;;;;;;6185291;22;88436;-70
2023/06/12 07:12:45;;;;;;;10.25;6.13;;;42.10;31.90;;;;;;6185362;22;87295;-71
2023/06/12 07:15:11;;;;;;;4.43;3.75;;;41.50;32.40;;;;;;6184683;22;87552;-71
2023/06/12 07:17:37;;;;;;;7.05;6.43;;;41.70;32.40;;;;;;6185462;22;88932;-70
2023/06/12 07:20:05;;;;;;;7.85;6.93;;;42.30;32.50;;;;;;6186591;22;88213;-71
2023/06/12 07:22:31;;;;;;;8.55;7.40;;;43.00;32.50;;;;;;6186650;22;87321;-71
2023/06/12 07:24:57;;;;;;;12.18;8.68;;;43.00;32.40;;;;;;6187103;22;87480;-72
2023/06/12 07:27:22;;;;;;;9.05;8.07;;;43.10;32.20;;;;;;6187042;22;87908;-71
2023/06/12 07:29:48;;;;;;;9.07;8.27;;;43.40;32.00;;;;;;6186870;22;87702;-71
2023/06/12 07:32:14;;;;;;;4.85;4.45;;;43.30;32.40;;;;;;6187189;22;87280;-71
2023/06/12 07:34:40;;;;;;;9.90;6.88;;;43.70;33.30;;;;;;6187745;22;86621;-71
2023/06/12 07:37:07;;;;;;;8.98;7.93;;;43.50;32.40;;;;;;6185943;22;87941;-72
2023/06/12 07:39:32;;;;;;;11.45;7.20;;;42.90;32.00;;;;;;6185877;22;87225;-71
2023/06/12 07:41:58;;;;;;;8.25;7.47;;;42.90;32.60;;;;;;6186507;22;88859;-70
2023/06/12 07:44:24;;;;;;;13.48;8.95;;;43.00;32.60;;;;;;6186796;22;86899;-71
2023/06/12 07:46:50;;;;;;;9.63;6.90;;;42.90;32.90;;;;;;6186891;22;88017;-72
2023/06/12 07:49:18;;;;;;;9.75;8.85;;;42.90;32.20;;;;;;6184888;22;86992;-70
2023/06/12 07:51:44;;;;;;;10.40;7.85;;;42.30;32.80;;;;;;6185600;22;86973;-70
2023/06/12 07:54:12;;;;;;;8.10;7.30;;;42.70;33.40;;;;;;6188746;22;86978;-69
2023/06/12 07:56:39;;;;;;;8.43;7.55;;;42.80;33.10;;;;;;6181091;22;87489;-73
2023/06/12 07:59:09;;;;;;;8.52;7.45;;;42.70;33.70;;;;;;6181601;22;87778;-70
2023/06/12 08:01:36;;;;;;;8.02;7.32;;;42.60;32.90;;;;;;6188494;22;87579;-72
2023/06/12 08:04:03;;;;;;;6.35;5.35;;;42.70;33.70;;;;;;6189002;22;87003;-70
2023/06/12 08:06:33;;;;;;;7.82;7.00;;;42.60;33.80;;;;;;6187775;22;88942;-70
2023/06/12 08:08:58;;;;;;;8.35;7.65;;;42.90;33.80;;;;;;6185400;22;89204;-70
2023/06/12 08:11:24;;;;;;;8.68;7.57;;;42.80;32.90;;;;;;6188205;22;86972;-71
2023/06/12 08:13:50;;;;;;;8.70;7.80;;;43.20;32.70;;;;;;6188803;22;86964;-71
2023/06/12 08:16:16;;;;;;;8.00;7.13;;;43.40;32.10;;;;;;6187736;22;87873;-71
2023/06/12 08:18:42;;;;;;;8.95;7.50;;;43.70;31.60;;;;;;6188380;22;87688;-71
2023/06/12 08:21:08;;;;;;;9.02;8.23;;;43.90;31.70;;;;;;6188422;22;87265;-70
2023/06/12 08:23:34;;;;;;;8.38;7.63;;;43.80;31.30;;;;;;6188856;22;86687;-72
2023/06/12 08:26:00;;;;;;;9.70;8.52;;;43.80;31.60;;;;;;6188270;22;87255;-70
2023/06/12 08:28:25;;;;;;;10.02;9.13;;;44.30;31.20;;;;;;6187435;22;87726;-72
2023/06/12 08:30:52;;;;;;;10.73;6.80;;;44.90;30.20;;;;;;6182614;22;88411;-71
2023/06/12 08:33:18;;;;;;;8.77;7.97;;;45.50;30.30;;;;;;6185340;22;87445;-71
2023/06/12 08:35:44;;;;;;;9.57;8.73;;;44.90;30.30;;;;;;6187359;22;87561;-71
2023/06/12 08:38:10;;;;;;;8.75;7.70;;;44.60;29.80;;;;;;6188363;22;87285;-70
2023/06/12 08:40:36;;;;;;;7.53;6.93;;;44.30;30.70;;;;;;6188175;22;87279;-71
2023/06/12 08:43:02;;;;;;;9.50;8.20;;;44.70;30.60;;;;;;6188616;22;87130;-71
2023/06/12 08:45:32;;;;;;;6.82;6.30;;;45.00;29.90;;;;;;6188047;22;87976;-71
2023/06/12 08:47:59;;;;;;;8.48;7.68;;;44.50;29.70;;;;;;6188164;22;87741;-71
2023/06/12 08:50:26;;;;;;;8.38;7.38;;;45.00;29.80;;;;;;6188148;22;87289;-72
2023/06/12 08:52:53;;;;;;;8.10;7.45;;;45.20;29.90;;;;;;6188131;22;87332;-72
2023/06/12 08:55:21;;;;;;;9.70;8.80;;;45.30;30.00;;;;;;6187471;22;88545;-71
2023/06/12 08:57:47;;;;;;;9.68;8.73;;;44.60;29.90;;;;;;6187663;22;88651;-72
2023/06/12 09:00:14;;;;;;;9.23;8.50;;;45.30;30.00;;;;;;6188126;22;87582;-71
2023/06/12 09:02:47;;;;;;;10.48;7.43;;;46.00;30.70;;;;;;6187846;22;87276;-70
2023/06/12 09:05:35;;;;;;;10.18;8.35;;;46.90;30.20;;;;;;6188138;22;87670;-70
2023/06/12 09:08:03;;;;;;;10.23;9.23;;;47.20;29.30;;;;;;6187620;22;87798;-71
2023/06/12 09:10:30;;;;;;;9.88;8.88;;;47.30;29.60;;;;;;6188034;22;87626;-72
2023/06/12 09:12:56;;;;;;;8.63;7.90;;;47.30;29.30;;;;;;6188111;22;86557;-70
2023/06/12 09:15:22;;;;;;;9.23;8.35;;;47.90;30.00;;;;;;6187265;22;88412;-70
2023/06/12 09:17:50;;;;;;;9.82;8.85;;;48.00;29.30;;;;;;6186837;22;87658;-70
2023/06/12 09:20:21;;;;;;;8.73;7.93;;;48.00;28.80;;;;;;6187829;22;87974;-70
2023/06/12 09:22:51;;;;;;;9.10;8.30;;;46.70;29.30;;;;;;6187651;22;87018;-71
2023/06/12 09:25:17;;;;;;;9.98;8.98;;;47.30;30.10;;;;;;6187587;22;88155;-72
2023/06/12 09:27:44;;;;;;;9.95;9.15;;;47.30;29.70;;;;;;6187498;22;87450;-70
2023/06/12 09:30:10;;;;;;;8.45;7.72;;;47.50;30.00;;;;;;6188383;22;86977;-69
2023/06/12 09:32:35;;;;;;;9.10;8.23;;;47.80;28.80;;;;;;6187760;22;87049;-71
2023/06/12 09:35:02;;;;;;;10.88;10.00;;;47.80;29.10;;;;;;6159182;22;89294;-70
2023/06/12 09:37:29;;;;;;;9.32;8.45;;;47.30;28.70;;;;;;6186542;22;88387;-70
2023/06/12 09:40:14;;;;;;;10.13;9.32;;;47.30;28.50;;;;;;6188107;22;86964;-70
2023/06/12 09:42:41;;;;;;;10.38;9.38;;;47.40;29.90;;;;;;6188117;22;87308;-70
2023/06/12 09:45:15;;;;;;;8.35;7.65;;;47.00;28.50;;;;;;6187317;22;88959;-71
2023/06/12 09:47:42;;;;;;;;;;;47.10;28.90;;;;;;6187581;22;88674;-71
2023/06/12 09:50:09;;;;;;;10.45;9.52;;;47.30;29.70;;;;;;6189545;22;87567;-70
2023/06/12 09:52:36;;;;;;;8.10;7.50;;;47.40;29.20;;;;;;6187872;22;87340;-71
2023/06/12 09:55:05;;;;;;;8.85;8.05;;;46.90;29.30;;;;;;6188517;22;88013;-70
2023/06/12 09:57:37;;;;;;;8.02;7.32;;;46.10;29.00;;;;;;6187556;22;87655;-69
2023/06/12 10:00:11;;;;;;;5.95;5.25;;;44.90;29.70;;;;;;6184001;22;87492;-71
2023/06/12 10:02:40;;;;;;;7.78;6.97;;;44.00;30.80;;;;;;6188590;22;86583;-70
2023/06/12 10:05:11;;;;;;;6.57;5.97;;;42.90;31.80;;;;;;6187189;22;88843;-70
2023/06/12 10:07:52;;;;;;;5.35;4.82;;;41.80;31.40;;;;;;6186956;22;87793;-69
2023/06/12 10:10:19;;;;;;;7.90;4.82;;;40.40;34.30;;;;;;6185378;22;88109;-70
2023/06/12 10:12:45;;;;;;;5.72;5.10;;;39.50;35.40;;;;;;6184782;22;87661;-71
2023/06/12 10:15:12;;;;;;;5.28;4.18;;;38.60;35.00;;;;;;6186838;22;87648;-70
2023/06/12 10:17:40;;;;;;;5.53;4.03;;;37.70;36.50;;;;;;6185034;22;87833;-69
2023/06/12 10:20:08;;;;;;;;;;;36.80;37.80;;;;;;6180339;22;87573;-69
2023/06/12 10:22:34;;;;;;;4.50;3.72;;;35.60;38.70;;;;;;6180023;22;87499;-69
2023/06/12 10:25:02;;;;;;;4.30;3.55;;;35.00;39.70;;;;;;6179140;22;88097;-71
2023/06/12 10:27:29;;;;;;;4.65;3.55;;;34.50;40.50;;;;;;6176927;22;87817;-71
2023/06/12 10:29:57;;;;;;;5.75;4.32;;;33.90;41.70;;;;;;6178161;22;87340;-70
2023/06/12 10:32:23;;;;;;;6.07;3.58;;;33.70;41.30;;;;;;6179760;22;87709;-71
2023/06/12 10:34:53;;;;;;;4.22;3.50;;;33.30;42.70;;;;;;6175649;22;88727;-72
2023/06/12 10:37:27;;;;;;;3.85;3.33;;;32.70;42.50;;;;;;6173106;22;89561;-68
2023/06/12 10:40:12;;;;;;;7.38;3.50;;;32.50;44.20;;;;;;6181260;22;87462;-69
2023/06/12 10:42:54;;;;;;;5.55;3.67;;;32.30;43.30;;;;;;6160233;22;87327;-70
2023/06/12 10:45:27;;;;;;;;;;;32.30;42.70;;;;;;6187293;22;87419;-70
2023/06/12 10:48:11;;;;;;;7.53;3.28;;;32.00;44.30;;;;;;6181981;22;87673;-69
2023/06/12 10:50:41;;;;;;;6.03;2.83;;;31.60;43.70;;;;;;6178306;22;87637;-70
2023/06/12 10:53:09;;;;;;;5.78;3.25;;;31.30;44.70;;;;;;6183930;22;86513;-70
2023/06/12 10:55:37;;;;;;;3.45;3.10;;;31.30;44.50;;;;;;6181781;22;88276;-69
2023/06/12 10:58:04;;;;;;;4.22;2.90;;;31.30;44.30;;;;;;6179066;22;88281;-71
2023/06/12 11:00:53;;;;;;;4.40;2.30;;;31.50;44.70;;;;;;6177475;22;88353;-72
2023/06/12 11:03:30;;;;;;;7.85;3.28;;;31.60;45.20;;;;;;6173865;22;87607;-72
2023/06/12 11:06:01;;;;;;;5.45;3.00;;;31.30;45.60;;;;;;6182526;22;88017;-70
2023/06/12 11:08:27;;;;;;;4.55;3.38;;;31.20;43.90;;;;;;6184059;22;88051;-71
2023/06/12 11:10:53;;;;;;;3.50;2.45;;;31.10;41.70;;;;;;6184114;22;87561;-68
2023/06/12 11:13:26;;;;;;;5.00;3.42;;;31.10;45.20;;;;;;6182350;22;87265;-69
2023/06/12 11:15:53;;;;;;;6.18;3.03;;;31.00;45.60;;;;;;6178258;22;87505;-69
2023/06/12 11:18:19;;;;;;;8.55;2.90;;;31.20;43.80;;;;;;6182348;22;86893;-70
2023/06/12 11:20:55;;;;;;;4.80;2.97;;;31.20;46.50;;;;;;6179278;22;87293;-72
2023/06/12 11:23:28;;;;;;;9.88;2.95;;;31.10;44.20;;;;;;6180956;22;87409;-69
2023/06/12 11:25:55;;;;;;;4.55;3.13;;;31.00;43.70;;;;;;6180465;22;89499;-72
2023/06/12 11:28:25;;;;;;;4.78;3.05;;;30.90;44.20;;;;;;6175971;22;88929;-73
2023/06/12 11:30:53;;;;;;;5.20;3.13;;;30.80;43.60;;;;;;6177923;22;87531;-71
2023/06/12 11:33:20;;;;;;;3.65;3.22;;;30.70;45.70;;;;;;6180458;22;87644;-73
2023/06/12 11:35:50;;;;;;;5.00;2.88;;;30.90;46.20;;;;;;6182401;22;88128;-73
2023/06/12 11:38:21;;;;;;;4.15;2.92;;;30.90;46.60;;;;;;6176683;22;88565;-69
2023/06/12 11:40:49;;;;;;;4.40;3.10;;;30.70;44.40;;;;;;6182494;22;87571;-70
2023/06/12 11:43:19;;;;;;;4.30;3.10;;;30.70;45.40;;;;;;6187273;22;86727;-68
2023/06/12 11:45:47;;;;;;;6.35;3.30;;;30.40;45.50;;;;;;6186988;22;88179;-69
2023/06/12 11:48:14;;;;;;;9.73;3.28;;;30.50;46.70;;;;;;6187762;22;87754;-69
2023/06/12 11:50:53;;;;;;;4.47;3.20;;;30.60;47.90;;;;;;6188488;22;88506;-69
2023/06/12 11:53:20;;;;;;;4.82;3.10;;;30.80;46.20;;;;;;6188071;22;87436;-69
2023/06/12 11:55:56;;;;;;;8.15;3.13;;;30.60;45.70;;;;;;6186366;22;87600;-69
2023/06/12 11:58:31;;;;;;;4.00;2.10;;;30.70;46.90;;;;;;6185495;22;87323;-71
2023/06/12 12:01:08;;;;;;;;;;;30.60;46.40;;;;;;6185838;22;87446;-68
2023/06/12 12:03:35;;;;;;;5.38;2.95;;;30.40;45.80;;;;;;6189427;22;87603;-69
2023/06/12 12:06:00;;;;;;;4.85;3.10;;;30.50;46.80;;;;;;6186734;22;88414;-70
2023/06/12 12:08:27;;;;;;;7.82;4.05;;;30.40;47.00;;;;;;6184929;22;87251;-71
2023/06/12 12:10:52;;;;;;;6.65;2.95;;;30.60;47.00;;;;;;6158661;22;87631;-70
2023/06/12 12:13:18;;;;;;;4.07;3.05;;;30.60;47.30;;;;;;6186688;22;87202;-69
2023/06/12 12:15:45;;;;;;;4.45;2.97;;;30.50;45.60;;;;;;6179769;22;89195;-70
2023/06/12 12:18:17;;;;;;;4.95;2.35;;;30.60;47.50;;;;;;6175793;22;88767;-72
2023/06/12 12:20:43;;;;;;;5.07;3.13;;;30.80;48.00;;;;;;6177795;22;87567;-69
2023/06/12 12:23:12;;;;;;;4.78;3.03;;;30.70;44.60;;;;;;6183491;22;87277;-70
2023/06/12 12:25:40;;;;;;;6.70;3.17;;;30.50;48.80;;;;;;6186978;22;88292;-70
2023/06/12 12:28:07;;;;;;;4.55;2.88;;;30.50;47.20;;;;;;6180507;22;87818;-70
2023/06/12 12:30:33;;;;;;;4.95;3.47;;;30.60;47.00;;;;;;6187262;22;87495;-69
2023/06/12 12:32:58;;;;;;;5.32;3.10;;;30.60;47.50;;;;;;6188362;22;87022;-68
2023/06/12 12:35:25;;;;;;;7.15;3.47;;;30.70;47.00;;;;;;6187573;22;88111;-70
2023/06/12 12:37:53;;;;;;;4.60;2.65;;;30.60;45.30;;;;;;6187538;22;87764;-68
2023/06/12 12:40:19;;;;;;;4.90;2.90;;;30.60;44.90;;;;;;6187635;22;88309;-70
2023/06/12 12:42:47;;;;;;;5.28;2.85;;;30.40;46.80;;;;;;6181187;22;87362;-70
2023/06/12 12:45:15;;;;;;;4.90;3.17;;;30.30;46.10;;;;;;6178164;22;88587;-70
2023/06/12 12:47:44;;;;;;;4.85;2.65;;;30.30;46.50;;;;;;6178152;22;87944;-69
2023/06/12 12:50:11;;;;;;;4.70;2.97;;;30.30;45.70;;;;;;6177409;22;87902;-70
2023/06/12 12:52:37;;;;;;;4.07;3.53;;;30.40;45.40;;;;;;6178112;22;87390;-70
2023/06/12 12:55:04;;;;;;;5.47;2.80;;;30.40;45.50;;;;;;6178276;22;88560;-70
2023/06/12 12:57:34;;;;;;;5.47;2.35;;;30.40;47.00;;;;;;6178968;22;87810;-71
2023/06/12 13:00:06;;;;;;;8.27;2.05;;;30.50;46.10;;;;;;6179435;22;87635;-68
2023/06/12 13:02:32;;;;;;;5.32;2.67;;;30.50;46.00;;;;;;6181367;22;87281;-71
2023/06/12 13:04:58;;;;;;;7.93;3.53;;;30.50;45.90;;;;;;6187302;22;89087;-70
2023/06/12 13:07:24;;;;;;;4.43;3.55;;;30.40;47.60;;;;;;6185178;22;88871;-72
2023/06/12 13:09:50;;;;;;;3.78;2.75;;;30.50;45.10;;;;;;6177263;22;87270;-72
2023/06/12 13:12:15;;;;;;;4.07;2.47;;;30.40;45.80;;;;;;6177584;22;87463;-69
2023/06/12 13:14:43;;;;;;;4.72;3.40;;;30.40;46.40;;;;;;6183337;22;87441;-69
2023/06/12 13:17:08;;;;;;;5.40;2.90;;;30.40;46.50;;;;;;6187401;22;87267;-70
2023/06/12 13:19:35;;;;;;;6.80;3.13;;;30.30;45.80;;;;;;6188675;22;87360;-70
2023/06/12 13:22:01;;;;;;;5.38;2.65;;;30.40;46.60;;;;;;6188893;22;86619;-70
2023/06/12 13:24:26;;;;;;;4.72;3.47;;;30.20;45.40;;;;;;6187753;22;87961;-69
2023/06/12 13:26:53;;;;;;;6.30;3.10;;;30.30;44.70;;;;;;6188315;22;87182;-70
2023/06/12 13:29:19;;;;;;;3.85;2.33;;;30.20;43.90;;;;;;6185200;22;88309;-72
2023/06/12 13:31:45;;;;;;;6.25;2.95;;;30.10;45.90;;;;;;6178504;22;87238;-72
2023/06/12 13:34:11;;;;;;;10.07;2.58;;;29.90;44.50;;;;;;6177477;22;87837;-73
2023/06/12 13:36:38;;;;;;;4.22;2.45;;;30.00;45.60;;;;;;6176533;22;87918;-70
2023/06/12 13:39:04;;;;;;;4.32;2.97;;;30.10;44.30;;;;;;6177712;22;87443;-70
2023/06/12 13:41:30;;;;;;;5.07;1.58;;;30.20;45.60;;;;;;6179443;22;87618;-70
2023/06/12 13:43:56;;;;;;;4.80;2.97;;;30.20;43.80;;;;;;6182812;22;88408;-69
2023/06/12 13:46:22;;;;;;;3.63;2.45;;;30.20;44.30;;;;;;6188846;22;88175;-69
2023/06/12 13:48:49;;;;;;;6.00;2.88;;;30.10;44.70;;;;;;6187991;22;87458;-70
2023/06/12 13:51:15;;;;;;;6.70;3.22;;;30.20;44.60;;;;;;6188351;22;87274;-68
2023/06/12 13:53:40;;;;;;;3.67;1.70;;;30.00;43.10;;;;;;6186063;22;88940;-71
2023/06/12 13:56:07;;;;;;;3.30;2.55;;;30.10;43.70;;;;;;6185721;22;88596;-70
2023/06/12 13:58:33;;;;;;;7.05;2.88;;;30.00;43.80;;;;;;6186966;22;87056;-69
2023/06/12 14:00:58;;;;;;;5.13;2.38;;;30.00;43.90;;;;;;6187991;22;87670;-70
2023/06/12 14:03:24;;;;;;;4.68;2.72;;;29.90;44.70;;;;;;6188131;22;88240;-70
2023/06/12 14:05:50;;;;;;;5.25;2.72;;;29.90;43.50;;;;;;6187753;22;87644;-70
2023/06/12 14:08:15;;;;;;;3.85;2.72;;;30.10;44.50;;;;;;6188178;22;87449;-69
2023/06/12 14:10:44;;;;;;;4.45;2.83;;;29.80;44.50;;;;;;6188821;22;86681;-69
2023/06/12 14:13:11;;;;;;;7.18;2.88;;;29.80;44.50;;;;;;6187722;22;87807;-71
2023/06/12 14:15:37;;;;;;;5.35;2.80;;;29.80;44.30;;;;;;6187944;22;88326;-69
2023/06/12 14:18:03;;;;;;;3.90;2.60;;;29.80;44.60;;;;;;6186847;22;88423;-69
2023/06/12 14:20:32;;;;;;;2.95;2.38;;;29.70;43.50;;;;;;6188353;22;87578;-71
2023/06/12 14:23:01;;;;;;;4.63;2.95;;;29.70;44.10;;;;;;6188942;22;88118;-71
2023/06/12 14:25:32;;;;;;;6.70;2.70;;;29.60;43.20;;;;;;6186876;22;88970;-70
2023/06/12 14:27:59;;;;;;;6.90;2.65;;;29.60;44.60;;;;;;6187859;22;87645;-69
2023/06/12 14:30:26;;;;;;;4.28;2.30;;;29.50;44.90;;;;;;6188691;22;87521;-72
2023/06/12 14:32:51;;;;;;;4.25;3.22;;;29.70;44.40;;;;;;6186111;22;88855;-70
2023/06/12 14:35:17;;;;;;;3.97;2.50;;;29.60;42.70;;;;;;6187317;22;87630;-73
2023/06/12 14:37:43;;;;;;;7.72;2.60;;;29.60;43.00;;;;;;6186367;22;87285;-69
2023/06/12 14:40:09;;;;;;;8.30;2.83;;;29.50;44.60;;;;;;6184778;22;87458;-69
2023/06/12 14:42:35;;;;;;;9.20;2.58;;;29.50;45.20;;;;;;6184907;22;88802;-68
2023/06/12 14:45:01;;;;;;;3.45;2.17;;;29.50;44.90;;;;;;6185177;22;88751;-69
2023/06/12 14:47:26;;;;;;;4.20;1.80;;;29.50;44.90;;;;;;6158177;22;87266;-68
2023/06/12 14:49:52;;;;;;;6.32;2.83;;;29.60;44.70;;;;;;6185760;22;87219;-70
2023/06/12 14:52:18;;;;;;;8.18;2.30;;;29.70;44.80;;;;;;6181932;22;87582;-69
2023/06/12 14:54:43;;;;;;;5.53;2.40;;;29.70;44.80;;;;;;6183524;22;87972;-70
2023/06/12 14:57:10;;;;;;;4.50;2.22;;;29.60;44.60;;;;;;6184084;22;87019;-71
2023/06/12 14:59:35;;;;;;;6.63;2.33;;;29.50;45.30;;;;;;6185009;22;87685;-69
2023/06/12 15:02:01;;;;;;;7.05;2.33;;;29.40;43.50;;;;;;6184921;22;87581;-69
2023/06/12 15:04:27;;;;;;;5.15;2.20;;;29.50;45.20;;;;;;6185330;22;87438;-72
2023/06/12 15:06:52;;;;;;;5.65;2.22;;;29.50;44.50;;;;;;6181142;22;88355;-71
2023/06/12 15:09:18;;;;;;;7.63;2.67;;;29.50;44.60;;;;;;6183426;22;87363;-69
2023/06/12 15:11:44;;;;;;;6.30;2.28;;;29.50;44.40;;;;;;6182237;22;87515;-72
2023/06/12 15:14:09;;;;;;;4.35;2.20;;;29.50;46.30;;;;;;6184735;22;87371;-69
2023/06/12 15:16:35;;;;;;;3.78;1.83;;;29.50;43.30;;;;;;6185411;22;88047;-69
2023/06/12 15:19:01;;;;;;;7.30;1.67;;;29.50;43.50;;;;;;6185898;22;87003;-70
2023/06/12 15:21:26;;;;;;;7.15;2.40;;;29.40;44.70;;;;;;6184868;22;87596;-69
2023/06/12 15:23:52;;;;;;;5.05;2.30;;;29.40;43.20;;;;;;6183738;22;87667;-70
2023/06/12 15:26:18;;;;;;;3.33;1.77;;;29.20;43.20;;;;;;6181893;22;87370;-70
2023/06/12 15:28:44;;;;;;;4.22;2.55;;;29.20;43.30;;;;;;6185470;22;87614;-70
2023/06/12 15:31:10;;;;;;;6.28;2.33;;;29.10;43.20;;;;;;6184330;22;88443;-70
2023/06/12 15:33:35;;;;;;;4.45;2.72;;;29.00;42.90;;;;;;6184984;22;88117;-69
2023/06/12 15:36:01;;;;;;;3.78;2.35;;;28.90;42.50;;;;;;6184816;22;87371;-69
2023/06/12 15:38:43;;;;;;;6.40;2.50;;;28.90;42.50;;;;;;6185668;22;87534;-71
2023/06/12 15:41:11;;;;;;;3.42;2.67;;;28.90;43.10;;;;;;6185518;22;87653;-71
2023/06/12 15:43:37;;;;;;;5.13;2.30;;;28.70;42.40;;;;;;6184401;22;88864;-71
2023/06/12 15:46:05;;;;;;;4.32;2.58;;;28.70;43.70;;;;;;6184925;22;87535;-69
2023/06/12 15:48:31;;;;;;;5.75;2.60;;;28.80;42.20;;;;;;6185521;22;86377;-71
2023/06/12 15:50:58;;;;;;;4.82;2.92;;;28.60;43.00;;;;;;6184825;22;88722;-70
2023/06/12 15:53:25;;;;;;;3.78;2.47;;;28.60;42.90;;;;;;6184445;22;87774;-70
2023/06/12 15:55:51;;;;;;;3.58;2.55;;;28.50;42.50;;;;;;6183756;22;88414;-71
2023/06/12 15:58:17;;;;;;;5.50;2.00;;;28.40;42.80;;;;;;6185108;22;87328;-70
2023/06/12 16:00:43;;;;;;;5.70;1.65;;;28.50;44.40;;;;;;6184743;22;88127;-69
2023/06/12 16:03:09;;;;;;;4.28;1.70;;;28.50;42.90;;;;;;6184623;22;87301;-71